Time;durP1;ratioP1;P1;durP2;ratioP2;P2;SDS_P1;SDS_P2;PMS_P1;PMS_P2;Temp;Humidity;BMP_temperature;BMP_pressure;BME280_temperature;BME280_humidity;BME280_pressure;Samples;Min_cycle;Max_cycle;Signal;HPM_P1;HPM_P2
2021/12/13 00:01:35;;;;;;;52.67;18.80;;;9.50;94.80;;;;;;5049388;28;20048;-66
2021/12/13 00:04:19;;;;;;;53.65;18.42;;;9.50;94.80;;;;;;5052262;28;20045;-66
2021/12/13 00:06:53;;;;;;;46.28;18.80;;;9.50;94.70;;;;;;5050732;28;20489;-66
2021/12/13 00:09:22;;;;;;;48.22;18.98;;;9.50;94.80;;;;;;5049260;28;20420;-66
2021/12/13 00:11:51;;;;;;;57.70;19.35;;;9.50;94.70;;;;;;5051335;28;20037;-66
2021/12/13 00:14:21;;;;;;;49.97;18.83;;;9.60;94.70;;;;;;5051266;28;20047;-66
2021/12/13 00:16:56;;;;;;;57.33;17.95;;;9.60;94.80;;;;;;5051145;28;20063;-66
2021/12/13 00:19:30;;;;;;;43.92;18.08;;;9.60;94.80;;;;;;5051245;28;20052;-66
2021/12/13 00:21:59;;;;;;;48.58;17.67;;;9.60;94.70;;;;;;5032875;28;20052;-66
2021/12/13 00:24:28;;;;;;;38.15;18.20;;;9.60;94.80;;;;;;5031999;28;20068;-66
2021/12/13 00:27:05;;;;;;;33.50;15.38;;;9.60;94.80;;;;;;5047174;28;20056;-66
2021/12/13 00:29:53;;;;;;;32.17;14.43;;;9.60;94.90;;;;;;5051351;28;20123;-66
2021/12/13 00:32:26;;;;;;;31.13;14.85;;;9.60;94.80;;;;;;5051418;28;20102;-66
2021/12/13 00:34:54;;;;;;;29.88;14.38;;;9.60;94.80;;;;;;5051492;28;20138;-66
2021/12/13 00:37:42;;;;;;;24.52;12.95;;;9.50;94.80;;;;;;5051023;28;20045;-66
2021/12/13 00:40:15;;;;;;;31.65;13.75;;;9.50;94.90;;;;;;5050144;28;20507;-66
2021/12/13 00:42:45;;;;;;;29.55;14.20;;;9.50;94.80;;;;;;5051045;28;20060;-66
2021/12/13 00:45:14;;;;;;;28.90;14.38;;;9.50;94.80;;;;;;5051025;28;20053;-66
2021/12/13 00:47:42;;;;;;;29.08;14.18;;;9.40;94.80;;;;;;5050466;28;20409;-66
2021/12/13 00:50:25;;;;;;;27.80;13.98;;;9.40;94.80;;;;;;5050841;28;20120;-66
2021/12/13 00:52:52;;;;;;;26.65;13.43;;;9.40;94.70;;;;;;5050038;28;20057;-66
2021/12/13 00:55:21;;;;;;;26.63;13.93;;;9.40;94.60;;;;;;5051461;28;20099;-66
2021/12/13 00:57:49;;;;;;;27.40;13.20;;;9.40;94.80;;;;;;5049265;28;20098;-66
2021/12/13 01:00:29;;;;;;;34.45;15.60;;;9.40;94.80;;;;;;5048714;28;20111;-66
2021/12/13 01:03:01;;;;;;;30.77;15.38;;;9.40;94.80;;;;;;5050293;28;20076;-66
2021/12/13 01:05:49;;;;;;;39.78;17.23;;;9.40;94.80;;;;;;5050992;28;20083;-66
2021/12/13 01:08:51;;;;;;;39.05;15.52;;;9.30;94.70;;;;;;5049697;28;20048;-66
2021/12/13 01:11:34;;;;;;;38.75;16.13;;;9.40;94.90;;;;;;5050646;28;20158;-66
2021/12/13 01:14:42;;;;;;;38.97;17.30;;;9.40;94.90;;;;;;5050461;28;20091;-66
2021/12/13 01:17:28;;;;;;;46.40;17.77;;;9.40;94.90;;;;;;5049307;28;20063;-66
2021/12/13 01:20:05;;;;;;;37.50;17.15;;;9.40;95.00;;;;;;5050030;28;20997;-66
2021/12/13 01:22:43;;;;;;;47.83;18.02;;;9.40;94.90;;;;;;5050404;28;20048;-66
2021/12/13 01:28:29;;;;;;;36.03;17.20;;;9.50;94.90;;;;;;5050068;28;20049;-66
2021/12/13 01:31:07;;;;;;;46.15;17.90;;;9.50;95.00;;;;;;5049705;28;20044;-66
2021/12/13 01:33:33;;;;;;;48.55;17.52;;;9.50;95.00;;;;;;5049618;28;20041;-66
2021/12/13 01:36:03;;;;;;;37.42;16.40;;;9.50;95.00;;;;;;5032330;28;20086;-66
2021/12/13 01:38:35;;;;;;;33.80;15.73;;;9.40;94.90;;;;;;5048815;28;20057;-66
2021/12/13 01:41:26;;;;;;;38.22;16.77;;;9.50;94.90;;;;;;5049372;28;20628;-66
2021/12/13 01:44:15;;;;;;;32.20;14.52;;;9.50;94.90;;;;;;5048331;28;20056;-66
2021/12/13 01:46:46;;;;;;;34.63;14.27;;;9.40;94.90;;;;;;5034376;28;20056;-66
2021/12/13 01:49:14;;;;;;;36.78;15.00;;;9.40;94.80;;;;;;5049773;28;20033;-66
2021/12/13 01:51:41;;;;;;;40.78;15.15;;;9.40;94.90;;;;;;5049635;28;20041;-66
2021/12/13 01:54:14;;;;;;;33.58;14.85;;;9.40;94.90;;;;;;5050004;28;20489;-66
2021/12/13 01:57:24;;;;;;;36.65;14.10;;;9.40;94.90;;;;;;5048618;28;20079;-66
2021/12/13 02:00:17;;;;;;;37.53;13.52;;;9.40;95.00;;;;;;5049768;28;20068;-66
2021/12/13 02:02:52;;;;;;;30.88;12.43;;;9.40;94.90;;;;;;5045626;28;20037;-66
2021/12/13 02:05:27;;;;;;;37.67;12.43;;;9.40;94.90;;;;;;5043113;28;20398;-66
2021/12/13 02:08:08;;;;;;;37.63;11.90;;;9.50;94.90;;;;;;5047287;28;20045;-66
2021/12/13 02:10:45;;;;;;;41.35;13.35;;;9.50;94.90;;;;;;5049351;28;20045;-67
2021/12/13 02:13:23;;;;;;;37.38;13.27;;;9.50;94.90;;;;;;5049638;28;20045;-66
2021/12/13 02:18:52;;;;;;;37.20;10.52;;;9.50;94.90;;;;;;5047583;28;20506;-66
2021/12/13 02:21:28;;;;;;;32.75;12.63;;;9.50;94.90;;;;;;5049657;28;20051;-66
2021/12/13 02:24:06;;;;;;;27.33;10.38;;;9.50;94.80;;;;;;5048696;28;20067;-66
2021/12/13 02:26:36;;;;;;;33.30;10.30;;;9.50;94.90;;;;;;5048680;28;20072;-66
2021/12/13 02:29:30;;;;;;;36.35;10.38;;;9.60;94.80;;;;;;5048421;28;20053;-66
2021/12/13 02:31:59;;;;;;;35.90;9.93;;;9.60;94.80;;;;;;5039007;28;20037;-66
2021/12/13 02:34:29;;;;;;;35.95;12.70;;;9.60;94.80;;;;;;5048640;28;20124;-66
2021/12/13 02:36:55;;;;;;;24.95;10.80;;;9.60;94.80;;;;;;5048341;28;20052;-66
2021/12/13 02:39:25;;;;;;;38.65;12.38;;;9.60;94.80;;;;;;5047996;28;20075;-66
2021/12/13 02:41:52;;;;;;;29.70;10.60;;;9.60;94.80;;;;;;5032676;28;20041;-66
2021/12/13 02:44:30;;;;;;;33.10;11.70;;;9.60;94.80;;;;;;5042209;28;20053;-66
2021/12/13 02:46:59;;;;;;;37.72;11.75;;;9.60;94.70;;;;;;5029192;28;20131;-66
2021/12/13 02:49:25;;;;;;;29.33;11.40;;;9.60;94.70;;;;;;5042355;28;20481;-66
2021/12/13 02:51:55;;;;;;;37.20;11.15;;;9.50;94.60;;;;;;5049201;28;20048;-66
2021/12/13 02:54:24;;;;;;;27.23;10.75;;;9.60;94.70;;;;;;5047807;28;20309;-66
2021/12/13 02:57:11;;;;;;;28.85;11.55;;;9.60;94.70;;;;;;5047038;28;20072;-66
2021/12/13 02:59:40;;;;;;;25.38;11.50;;;9.60;94.60;;;;;;5048830;28;20090;-66
2021/12/13 03:02:30;;;;;;;26.80;10.98;;;9.50;94.60;;;;;;5048954;28;20531;-66
2021/12/13 03:04:59;;;;;;;30.98;13.07;;;9.50;94.60;;;;;;5048771;28;20130;-66
2021/12/13 03:07:35;;;;;;;32.03;11.63;;;9.40;94.50;;;;;;5048941;28;20037;-66
2021/12/13 03:10:09;;;;;;;32.30;11.38;;;9.50;94.50;;;;;;5048338;28;20041;-66
2021/12/13 03:12:35;;;;;;;24.58;10.88;;;9.40;94.40;;;;;;5047534;28;20045;-66
2021/12/13 03:15:07;;;;;;;24.08;10.85;;;9.40;94.40;;;;;;5048890;28;20041;-68
2021/12/13 03:17:40;;;;;;;31.60;11.38;;;9.40;94.40;;;;;;5048445;28;20044;-66
2021/12/13 03:20:15;;;;;;;22.95;9.63;;;9.40;94.40;;;;;;5048988;28;20612;-66
2021/12/13 03:23:12;;;;;;;26.58;9.60;;;9.40;94.40;;;;;;5047040;28;20043;-66
2021/12/13 03:25:40;;;;;;;20.90;11.25;;;9.40;94.40;;;;;;5045642;28;20053;-66
2021/12/13 03:28:43;;;;;;;27.02;10.88;;;9.30;94.40;;;;;;5047611;28;20067;-66
2021/12/13 03:31:15;;;;;;;12.80;7.32;;;9.40;94.40;;;;;;5048612;28;20052;-66
2021/12/13 03:33:49;;;;;;;25.85;11.38;;;9.30;94.30;;;;;;5048788;28;20056;-66
2021/12/13 03:36:19;;;;;;;21.90;7.78;;;9.30;94.40;;;;;;5048909;28;20182;-66
2021/12/13 03:38:49;;;;;;;22.40;7.38;;;9.30;94.30;;;;;;5048286;28;20061;-66
2021/12/13 03:41:20;;;;;;;21.90;6.35;;;9.30;94.30;;;;;;5041966;28;20041;-66
2021/12/13 03:43:52;;;;;;;19.73;6.50;;;9.30;94.30;;;;;;5048792;28;20040;-66
2021/12/13 03:46:20;;;;;;;15.32;6.20;;;9.30;94.20;;;;;;5048837;28;20044;-66
2021/12/13 03:48:48;;;;;;;21.08;7.57;;;9.30;94.10;;;;;;5048610;28;20048;-66
2021/12/13 03:51:18;;;;;;;18.98;6.18;;;9.30;94.20;;;;;;5048068;28;20052;-65
2021/12/13 03:53:47;;;;;;;13.88;5.18;;;9.40;94.10;;;;;;5048663;28;20041;-66
2021/12/13 03:56:16;;;;;;;16.17;6.55;;;9.30;94.00;;;;;;5045393;28;20036;-66
2021/12/13 03:58:50;;;;;;;14.35;6.13;;;9.30;93.80;;;;;;5048621;28;20383;-66
2021/12/13 04:01:27;;;;;;;13.00;5.30;;;9.30;93.90;;;;;;5047748;28;20992;-66
2021/12/13 04:03:56;;;;;;;18.25;6.25;;;9.30;93.90;;;;;;5050365;28;20149;-66
2021/12/13 04:06:23;;;;;;;18.50;5.47;;;9.30;93.80;;;;;;5051332;28;20052;-65
2021/12/13 04:08:51;;;;;;;11.50;5.72;;;9.30;93.60;;;;;;5047600;28;20039;-66
2021/12/13 04:11:17;;;;;;;12.98;5.78;;;9.20;93.60;;;;;;5046746;28;20041;-66
2021/12/13 04:13:56;;;;;;;21.33;6.30;;;9.30;93.60;;;;;;5047136;28;20091;-66
2021/12/13 04:16:34;;;;;;;13.23;5.43;;;9.20;93.50;;;;;;5051823;28;20049;-66
2021/12/13 04:19:09;;;;;;;12.38;6.20;;;9.20;93.50;;;;;;5051461;28;20094;-66
2021/12/13 04:21:47;;;;;;;11.88;5.53;;;9.20;93.40;;;;;;5050696;28;20420;-66
2021/12/13 04:24:29;;;;;;;11.90;5.53;;;9.20;93.30;;;;;;5050913;28;20045;-65
2021/12/13 04:27:03;;;;;;;11.00;5.93;;;9.10;93.30;;;;;;5051635;28;20052;-66
2021/12/13 04:29:34;;;;;;;9.60;6.65;;;9.20;93.40;;;;;;5051475;28;20309;-66
2021/12/13 04:32:12;;;;;;;18.70;5.65;;;9.10;93.20;;;;;;5051260;28;20069;-66
2021/12/13 04:34:41;;;;;;;12.02;4.60;;;9.10;93.30;;;;;;5051102;28;20102;-66
2021/12/13 04:37:11;;;;;;;11.10;5.10;;;9.10;93.30;;;;;;5050813;28;20068;-66
2021/12/13 04:39:38;;;;;;;11.77;4.97;;;9.20;93.40;;;;;;5050935;28;20529;-66
2021/12/13 04:42:14;;;;;;;11.40;5.38;;;9.20;93.30;;;;;;5050391;28;20048;-66
2021/12/13 04:44:50;;;;;;;13.57;6.18;;;9.20;93.30;;;;;;5051050;28;20505;-66
2021/12/13 04:47:23;;;;;;;13.43;5.85;;;9.20;93.20;;;;;;5050896;28;20044;-66
2021/12/13 04:50:18;;;;;;;10.52;5.88;;;9.20;93.30;;;;;;5039944;28;20504;-66
2021/12/13 04:52:45;;;;;;;8.80;5.13;;;9.20;93.30;;;;;;5043571;28;20045;-66
2021/12/13 04:55:21;;;;;;;14.00;6.38;;;9.20;93.20;;;;;;5051092;28;20421;-66
2021/12/13 04:57:48;;;;;;;12.45;6.13;;;9.20;93.20;;;;;;5050516;28;20048;-66
2021/12/13 05:00:18;;;;;;;14.90;6.40;;;9.20;93.20;;;;;;5049330;28;20418;-66
2021/12/13 05:02:47;;;;;;;16.08;6.97;;;9.20;93.20;;;;;;5050865;28;20044;-66
2021/12/13 05:05:14;;;;;;;12.27;6.07;;;9.20;93.10;;;;;;5050761;28;20587;-66
2021/12/13 05:07:43;;;;;;;10.30;6.15;;;9.20;93.10;;;;;;5050011;28;20083;-66
2021/12/13 05:10:10;;;;;;;11.70;7.15;;;9.20;93.00;;;;;;5037126;28;20047;-66
2021/12/13 05:12:36;;;;;;;14.00;6.97;;;9.20;93.00;;;;;;5050196;28;20041;-65
2021/12/13 05:15:07;;;;;;;15.82;7.55;;;9.20;93.00;;;;;;5049431;28;20044;-66
2021/12/13 05:17:38;;;;;;;14.77;6.97;;;9.30;93.00;;;;;;5050043;28;20063;-66
2021/12/13 05:20:24;;;;;;;14.05;8.07;;;9.20;92.50;;;;;;5037244;28;20295;-66
2021/12/13 05:22:55;;;;;;;14.15;7.82;;;9.30;92.90;;;;;;5050184;28;20041;-66
2021/12/13 05:25:42;;;;;;;14.57;8.43;;;9.20;92.90;;;;;;5027966;28;20056;-65
2021/12/13 05:28:19;;;;;;;10.80;7.13;;;9.30;92.80;;;;;;5045372;28;20045;-66
2021/12/13 05:30:57;;;;;;;17.05;8.07;;;9.20;92.80;;;;;;5048675;28;20041;-66
2021/12/13 05:33:24;;;;;;;11.50;7.90;;;9.20;92.80;;;;;;5045666;28;20048;-66
2021/12/13 05:35:54;;;;;;;14.35;7.20;;;9.10;92.60;;;;;;5049854;28;20085;-66
2021/12/13 05:38:42;;;;;;;13.20;7.53;;;9.10;92.80;;;;;;5049600;28;20166;-65
2021/12/13 05:41:29;;;;;;;11.48;7.00;;;9.20;92.70;;;;;;5043962;28;20575;-65
2021/12/13 05:43:59;;;;;;;13.15;6.80;;;9.10;92.70;;;;;;5049579;28;20067;-65
2021/12/13 05:46:44;;;;;;;11.07;7.15;;;9.10;92.70;;;;;;5049355;28;21001;-65
2021/12/13 05:49:19;;;;;;;10.40;7.38;;;9.10;92.70;;;;;;5036696;28;20045;-65
2021/12/13 05:51:50;;;;;;;9.95;6.18;;;9.10;92.80;;;;;;5030706;28;20088;-66
2021/12/13 05:54:29;;;;;;;11.40;6.45;;;9.10;92.60;;;;;;5049378;28;20037;-66
2021/12/13 05:57:09;;;;;;;12.57;7.32;;;9.10;92.70;;;;;;5048816;28;20721;-65
2021/12/13 05:59:39;;;;;;;14.18;7.82;;;9.10;92.70;;;;;;5034774;28;20518;-65
2021/12/13 06:02:16;;;;;;;14.38;7.05;;;9.10;92.70;;;;;;5046248;28;20116;-65
2021/12/13 06:05:03;;;;;;;12.93;6.43;;;9.10;92.60;;;;;;5048802;28;20088;-66
2021/12/13 06:07:35;;;;;;;11.30;6.72;;;9.10;92.60;;;;;;5049221;28;20076;-65
2021/12/13 06:10:04;;;;;;;;;;;9.00;92.60;;;;;;5048557;28;20047;-66
2021/12/13 06:12:59;;;;;;;13.68;7.68;;;9.00;92.50;;;;;;5049319;28;19920;-66
2021/12/13 06:15:40;;;;;;;13.23;7.30;;;9.00;92.60;;;;;;5048077;28;20136;-66
2021/12/13 06:18:17;;;;;;;14.80;8.48;;;9.00;92.70;;;;;;5046725;28;20047;-64
2021/12/13 06:21:12;;;;;;;17.08;8.43;;;9.00;92.60;;;;;;5048601;28;20041;-64
2021/12/13 06:23:39;;;;;;;10.45;7.55;;;9.10;92.60;;;;;;5044191;28;20028;-65
2021/12/13 06:26:11;;;;;;;13.27;8.10;;;9.00;92.60;;;;;;5047881;28;20040;-65
2021/12/13 06:28:40;;;;;;;13.18;8.23;;;9.00;92.60;;;;;;5048845;28;20072;-65
2021/12/13 06:31:09;;;;;;;14.90;8.43;;;9.10;92.50;;;;;;5048251;28;20045;-65
2021/12/13 06:33:45;;;;;;;14.75;9.63;;;9.00;92.50;;;;;;5048511;28;20130;-65
2021/12/13 06:36:11;;;;;;;12.35;9.23;;;9.10;92.50;;;;;;5048164;28;20041;-65
2021/12/13 06:38:41;;;;;;;13.23;8.63;;;9.10;92.40;;;;;;5046373;28;20071;-66
2021/12/13 06:41:18;;;;;;;16.00;9.70;;;9.10;92.40;;;;;;5048523;28;20053;-67
2021/12/13 06:43:49;;;;;;;16.13;9.68;;;9.00;92.50;;;;;;5048330;28;20048;-66
2021/12/13 06:46:24;;;;;;;14.90;8.80;;;9.00;92.50;;;;;;5043945;28;20040;-65
2021/12/13 06:49:00;;;;;;;19.40;9.38;;;9.10;92.50;;;;;;5048320;28;20033;-65
2021/12/13 06:51:43;;;;;;;20.52;11.30;;;9.10;92.50;;;;;;5048499;28;20041;-66
2021/12/13 06:54:38;;;;;;;14.48;10.05;;;9.10;92.50;;;;;;5032525;28;20049;-65
2021/12/13 06:57:31;;;;;;;16.13;10.07;;;9.10;92.30;;;;;;5032982;28;20111;-66
2021/12/13 07:00:08;;;;;;;18.75;10.82;;;9.00;92.40;;;;;;5030436;28;20451;-67
2021/12/13 07:02:51;;;;;;;15.32;10.05;;;9.00;92.50;;;;;;5028435;28;20064;-66
2021/12/13 07:05:19;;;;;;;;;;;9.10;92.50;;;;;;5029877;28;20502;-67
2021/12/13 07:08:17;;;;;;;16.00;9.52;;;8.90;92.30;;;;;;5047320;28;19921;-66
2021/12/13 07:10:44;;;;;;;17.92;10.68;;;9.00;92.60;;;;;;5040920;28;20505;-66
2021/12/13 07:13:20;;;;;;;17.63;10.70;;;9.00;92.60;;;;;;5047748;28;20064;-67
2021/12/13 07:16:02;;;;;;;14.65;11.05;;;9.00;92.40;;;;;;5041692;28;20057;-66
2021/12/13 07:19:01;;;;;;;;;;;9.10;92.40;;;;;;5042547;28;20038;-66
2021/12/13 07:21:34;;;;;;;17.88;11.55;;;9.10;92.40;;;;;;5019736;28;20403;-66
2021/12/13 07:24:07;;;;;;;13.85;10.40;;;9.10;92.50;;;;;;5040706;28;20090;-66
2021/12/13 07:26:53;;;;;;;18.05;11.10;;;9.10;92.40;;;;;;5049000;28;20135;-66
2021/12/13 07:29:21;;;;;;;17.88;10.65;;;9.10;92.30;;;;;;5047417;28;20049;-66
2021/12/13 07:32:00;;;;;;;17.02;11.30;;;9.10;92.30;;;;;;5047808;28;20406;-66
2021/12/13 07:34:25;;;;;;;17.23;11.10;;;9.10;92.20;;;;;;5036248;28;20083;-66
2021/12/13 07:36:58;;;;;;;12.52;10.48;;;9.10;92.20;;;;;;5036018;28;20371;-65
2021/12/13 07:39:34;;;;;;;21.05;11.40;;;9.20;92.30;;;;;;5048822;28;20057;-65
2021/12/13 07:42:04;;;;;;;15.52;10.65;;;9.30;92.10;;;;;;5048782;28;20546;-65
2021/12/13 07:44:39;;;;;;;17.13;11.93;;;9.20;92.00;;;;;;5046340;28;20072;-65
2021/12/13 07:47:23;;;;;;;15.65;10.73;;;9.20;92.00;;;;;;5038402;28;20046;-65
2021/12/13 07:49:58;;;;;;;12.15;9.88;;;9.20;92.00;;;;;;5046511;28;20045;-65
2021/12/13 07:52:38;;;;;;;16.02;11.10;;;9.20;92.00;;;;;;5051094;28;20049;-65
2021/12/13 07:55:19;;;;;;;13.48;9.63;;;9.20;92.00;;;;;;5044438;28;20084;-65
2021/12/13 07:57:45;;;;;;;16.07;10.03;;;9.20;91.90;;;;;;5051070;28;20033;-65
2021/12/13 08:00:38;;;;;;;13.65;10.38;;;9.20;91.90;;;;;;5048753;28;20295;-65
2021/12/13 08:03:11;;;;;;;14.95;10.50;;;9.20;91.80;;;;;;5043488;28;20049;-65
2021/12/13 08:05:45;;;;;;;18.33;10.60;;;9.20;92.00;;;;;;5050326;28;20041;-65
2021/12/13 08:08:26;;;;;;;16.48;10.02;;;9.20;91.90;;;;;;5049147;28;20045;-65
2021/12/13 08:10:57;;;;;;;16.20;10.15;;;9.20;91.90;;;;;;5050291;28;20080;-65
2021/12/13 08:13:28;;;;;;;15.20;10.95;;;9.20;91.90;;;;;;5045854;28;20549;-65
2021/12/13 08:16:04;;;;;;;17.83;10.60;;;9.20;91.80;;;;;;5046904;28;20417;-65
2021/12/13 08:18:32;;;;;;;17.05;9.95;;;9.20;91.50;;;;;;5039189;28;20049;-65
2021/12/13 08:21:05;;;;;;;14.95;10.70;;;9.20;91.70;;;;;;5050996;28;20041;-64
2021/12/13 08:23:39;;;;;;;15.25;9.65;;;9.20;91.80;;;;;;5045557;28;20049;-64
2021/12/13 08:26:09;;;;;;;25.45;12.70;;;9.20;91.70;;;;;;5045994;28;20060;-65
2021/12/13 08:28:39;;;;;;;13.90;10.93;;;9.30;91.80;;;;;;5049956;28;20068;-64
2021/12/13 08:31:08;;;;;;;18.90;10.30;;;9.30;91.70;;;;;;5050384;28;20053;-64
2021/12/13 08:33:43;;;;;;;14.52;9.23;;;9.20;91.60;;;;;;5048783;28;20099;-64
2021/12/13 08:36:14;;;;;;;18.52;9.05;;;9.20;91.60;;;;;;5050110;28;20568;-64
2021/12/13 08:38:59;;;;;;;13.32;9.38;;;9.20;91.40;;;;;;5047701;28;20057;-64
2021/12/13 08:41:32;;;;;;;14.95;10.15;;;9.20;91.40;;;;;;5051030;28;20126;-64
2021/12/13 08:44:18;;;;;;;11.60;8.77;;;9.20;91.50;;;;;;5047725;28;20045;-64
2021/12/13 08:46:51;;;;;;;14.23;9.68;;;9.30;91.40;;;;;;5032362;28;20045;-64
2021/12/13 08:49:30;;;;;;;12.38;9.43;;;9.20;91.40;;;;;;5047606;28;20131;-64
2021/12/13 08:52:14;;;;;;;14.65;9.45;;;9.20;91.20;;;;;;5050292;28;20045;-65
2021/12/13 08:55:00;;;;;;;16.85;9.38;;;9.20;91.20;;;;;;5047838;28;20068;-65
2021/12/13 08:57:47;;;;;;;11.27;9.40;;;9.20;91.30;;;;;;5046631;28;20057;-65
2021/12/13 09:00:12;;;;;;;22.80;11.05;;;9.20;91.30;;;;;;5046798;28;20052;-64
2021/12/13 09:02:42;;;;;;;13.55;9.10;;;9.20;91.30;;;;;;5050246;28;20045;-64
2021/12/13 09:05:13;;;;;;;15.85;9.05;;;9.20;91.30;;;;;;5050298;28;20057;-64
2021/12/13 09:07:54;;;;;;;11.18;8.27;;;9.20;91.40;;;;;;5043472;28;20057;-64
2021/12/13 09:10:33;;;;;;;13.10;9.13;;;9.20;91.40;;;;;;5048521;28;20123;-64
2021/12/13 09:12:59;;;;;;;12.93;9.00;;;9.20;91.20;;;;;;5034887;28;20045;-64
2021/12/13 09:15:30;;;;;;;15.38;9.70;;;9.20;91.30;;;;;;5040909;28;20055;-64
2021/12/13 09:17:56;;;;;;;13.07;9.27;;;9.30;91.30;;;;;;5044957;28;20052;-63
2021/12/13 09:20:31;;;;;;;15.57;8.90;;;9.30;91.20;;;;;;5040303;28;20049;-63
2021/12/13 09:23:06;;;;;;;12.02;9.23;;;9.30;91.30;;;;;;5037817;28;20094;-64
2021/12/13 09:26:08;;;;;;;14.10;8.45;;;9.30;91.30;;;;;;5049034;28;20131;-64
2021/12/13 09:28:42;;;;;;;15.38;8.45;;;9.40;91.20;;;;;;5048535;28;20041;-64
2021/12/13 09:31:16;;;;;;;17.42;9.55;;;9.30;90.90;;;;;;5049978;28;20079;-65
2021/12/13 09:33:48;;;;;;;17.85;9.32;;;9.30;91.10;;;;;;5048763;28;20498;-64
2021/12/13 09:36:17;;;;;;;10.68;8.13;;;9.30;91.00;;;;;;5049252;28;20501;-64
2021/12/13 09:39:06;;;;;;;13.05;8.50;;;9.30;90.90;;;;;;5048325;28;20052;-64
2021/12/13 09:41:46;;;;;;;11.90;8.65;;;9.40;91.00;;;;;;5047989;28;20068;-64
2021/12/13 09:44:12;;;;;;;11.27;8.07;;;9.40;90.80;;;;;;5049328;28;20123;-64
2021/12/13 09:46:55;;;;;;;13.73;9.55;;;9.30;90.60;;;;;;5049444;28;20043;-64
2021/12/13 09:49:24;;;;;;;18.33;9.02;;;9.30;90.80;;;;;;5047184;28;20048;-64
2021/12/13 09:51:52;;;;;;;13.07;7.65;;;9.30;90.80;;;;;;5031250;28;20059;-64
2021/12/13 09:54:21;;;;;;;11.90;9.48;;;9.30;90.80;;;;;;5049514;28;20131;-64
2021/12/13 09:56:49;;;;;;;14.93;9.43;;;9.30;90.80;;;;;;5047113;28;20044;-64
2021/12/13 09:59:37;;;;;;;15.85;9.00;;;9.30;90.80;;;;;;5048586;28;20159;-65
2021/12/13 10:02:08;;;;;;;20.75;9.63;;;9.40;90.90;;;;;;5048293;28;20041;-63
2021/12/13 10:04:42;;;;;;;13.70;8.60;;;9.40;90.90;;;;;;5048719;28;20048;-64
2021/12/13 10:07:15;;;;;;;19.15;9.80;;;9.40;90.90;;;;;;5045262;28;20466;-64
2021/12/13 10:09:49;;;;;;;15.35;9.52;;;9.40;90.80;;;;;;5047204;28;20560;-64
2021/12/13 10:12:39;;;;;;;17.35;10.50;;;9.40;90.80;;;;;;5048841;28;20083;-64
2021/12/13 10:15:10;;;;;;;14.70;10.35;;;9.40;90.80;;;;;;5047333;28;20087;-64
2021/12/13 10:17:41;;;;;;;16.70;9.65;;;9.40;90.70;;;;;;5047230;28;20065;-65
2021/12/13 10:20:14;;;;;;;16.50;10.70;;;9.40;90.60;;;;;;5048920;28;20045;-64
2021/12/13 10:22:42;;;;;;;16.60;9.77;;;9.40;90.60;;;;;;5046535;28;20394;-65
2021/12/13 10:25:25;;;;;;;12.75;10.55;;;9.40;90.60;;;;;;5038368;28;20087;-64
2021/12/13 10:27:51;;;;;;;15.98;10.77;;;9.50;90.70;;;;;;5037349;28;20040;-64
2021/12/13 10:30:23;;;;;;;15.32;11.10;;;9.40;90.70;;;;;;5047503;28;20041;-65
2021/12/13 10:32:49;;;;;;;18.35;11.77;;;9.40;90.70;;;;;;5046648;28;20044;-66
2021/12/13 10:35:20;;;;;;;21.23;11.93;;;9.40;90.60;;;;;;5047413;28;20517;-66
2021/12/13 10:37:54;;;;;;;23.90;14.10;;;9.40;90.70;;;;;;5048548;28;20045;-67
2021/12/13 10:40:28;;;;;;;17.13;11.18;;;9.40;90.70;;;;;;5048678;28;20057;-66
2021/12/13 10:42:59;;;;;;;16.33;11.63;;;9.40;90.70;;;;;;5039661;28;20502;-66
2021/12/13 10:45:30;;;;;;;18.92;12.18;;;9.50;90.80;;;;;;5048411;28;20049;-67
2021/12/13 10:47:58;;;;;;;18.37;13.50;;;9.40;90.70;;;;;;5044461;28;20401;-67
2021/12/13 10:50:37;;;;;;;17.50;12.55;;;9.40;90.60;;;;;;5047962;28;20041;-66
2021/12/13 10:53:05;;;;;;;19.65;14.50;;;9.40;90.80;;;;;;5046948;28;20045;-66
2021/12/13 10:55:39;;;;;;;19.15;13.18;;;9.50;90.60;;;;;;5048805;28;20149;-66
2021/12/13 10:58:05;;;;;;;26.10;14.85;;;9.50;90.80;;;;;;5047312;28;20045;-66
2021/12/13 11:00:44;;;;;;;22.00;13.70;;;9.50;90.50;;;;;;5047998;28;20458;-67
2021/12/13 11:03:18;;;;;;;18.95;14.55;;;9.60;90.70;;;;;;5047896;28;20045;-66
2021/12/13 11:05:47;;;;;;;17.05;13.27;;;9.60;90.80;;;;;;5047594;28;20037;-66
2021/12/13 11:08:16;;;;;;;24.13;15.25;;;9.60;90.80;;;;;;5047133;28;20051;-66
2021/12/13 11:10:51;;;;;;;20.77;13.93;;;9.60;90.70;;;;;;5044631;28;20506;-65
2021/12/13 11:13:18;;;;;;;21.38;14.45;;;9.60;90.60;;;;;;5050963;28;20506;-66
2021/12/13 11:15:47;;;;;;;22.27;15.00;;;9.60;90.70;;;;;;5047505;28;20517;-66
2021/12/13 11:18:27;;;;;;;25.20;16.58;;;9.60;90.70;;;;;;5044627;28;20569;-66
2021/12/13 11:20:57;;;;;;;19.83;14.25;;;9.60;90.70;;;;;;5048033;28;20094;-66
2021/12/13 11:23:23;;;;;;;19.88;14.55;;;9.60;90.80;;;;;;5048290;28;20386;-66
2021/12/13 11:25:57;;;;;;;20.48;14.77;;;9.60;90.80;;;;;;5041910;28;20573;-66
2021/12/13 11:28:24;;;;;;;22.83;15.93;;;9.60;90.90;;;;;;5032516;28;20513;-66
2021/12/13 11:30:51;;;;;;;24.02;15.77;;;9.60;91.00;;;;;;5049209;28;20045;-66
2021/12/13 11:33:38;;;;;;;23.88;15.00;;;9.60;91.20;;;;;;5042217;28;20048;-66
2021/12/13 11:36:07;;;;;;;23.30;15.50;;;9.70;91.20;;;;;;5046800;28;20501;-66
2021/12/13 11:38:52;;;;;;;26.58;15.75;;;9.60;91.60;;;;;;5048708;28;20522;-66
2021/12/13 11:41:35;;;;;;;22.40;14.63;;;9.60;91.50;;;;;;5051503;28;20119;-66
2021/12/13 11:44:26;;;;;;;27.38;14.70;;;9.70;91.70;;;;;;5046512;28;20441;-66
2021/12/13 11:47:34;;;;;;;20.83;14.70;;;9.70;91.40;;;;;;5018625;28;20161;-66
2021/12/13 11:50:30;;;;;;;20.45;13.68;;;9.70;91.50;;;;;;5037399;28;20127;-66
2021/12/13 11:53:38;;;;;;;24.85;14.98;;;9.70;91.50;;;;;;5048156;28;20045;-66
2021/12/13 11:56:15;;;;;;;25.63;13.73;;;9.80;91.50;;;;;;5032537;28;20049;-65
2021/12/13 11:59:00;;;;;;;18.77;12.25;;;9.80;91.40;;;;;;5035405;28;20049;-66
2021/12/13 12:02:05;;;;;;;22.52;13.65;;;9.80;91.40;;;;;;5049625;28;20037;-66
2021/12/13 12:05:05;;;;;;;17.15;12.68;;;9.80;91.20;;;;;;5048599;28;20132;-65
2021/12/13 12:08:11;;;;;;;25.58;15.27;;;9.90;91.20;;;;;;5048966;28;20068;-65
2021/12/13 12:11:07;;;;;;;23.50;15.02;;;9.90;91.10;;;;;;5050218;28;20118;-66
2021/12/13 12:13:41;;;;;;;19.77;13.52;;;9.90;91.20;;;;;;5048815;28;20074;-66
2021/12/13 12:16:07;;;;;;;25.80;14.18;;;9.90;91.00;;;;;;5047092;28;20076;-65
2021/12/13 12:18:37;;;;;;;23.85;14.10;;;9.90;91.10;;;;;;5048998;28;20041;-65
2021/12/13 12:21:35;;;;;;;21.40;14.75;;;10.00;91.00;;;;;;5050491;28;20041;-66
2021/12/13 12:24:05;;;;;;;26.85;14.80;;;10.00;90.90;;;;;;5049141;28;20613;-65
2021/12/13 12:26:32;;;;;;;24.90;15.18;;;10.00;90.90;;;;;;5046011;28;20057;-66
2021/12/13 12:29:02;;;;;;;19.77;13.65;;;10.10;90.90;;;;;;5048063;28;20037;-65
2021/12/13 12:31:34;;;;;;;25.45;14.43;;;10.10;90.80;;;;;;5049617;28;20456;-66
2021/12/13 12:34:02;;;;;;;17.65;11.55;;;10.10;90.80;;;;;;5049804;28;20048;-66
2021/12/13 12:36:43;;;;;;;22.30;13.48;;;10.10;90.50;;;;;;5048084;28;20076;-66
2021/12/13 12:40:02;;;;;;;18.58;12.73;;;10.20;90.60;;;;;;5048528;28;20245;-65
2021/12/13 12:42:44;;;;;;;19.65;13.93;;;10.20;90.40;;;;;;5048636;28;20508;-65
2021/12/13 12:45:22;;;;;;;21.27;12.80;;;10.20;90.60;;;;;;5047220;28;20049;-65
2021/12/13 12:47:50;;;;;;;20.42;13.55;;;10.30;90.50;;;;;;5048320;28;20470;-65
2021/12/13 12:50:17;;;;;;;18.75;12.80;;;10.20;90.40;;;;;;5048195;28;20041;-64
2021/12/13 12:52:53;;;;;;;21.63;12.85;;;10.20;89.90;;;;;;5044283;28;20052;-65
2021/12/13 12:55:26;;;;;;;26.17;14.10;;;10.30;90.20;;;;;;5030879;28;20037;-66
2021/12/13 12:57:52;;;;;;;19.40;13.68;;;10.30;90.10;;;;;;5031618;28;20049;-66
2021/12/13 13:00:23;;;;;;;19.50;12.80;;;10.20;90.00;;;;;;5030119;28;20038;-66
2021/12/13 13:02:50;;;;;;;19.97;13.80;;;10.30;90.10;;;;;;5037378;28;20060;-66
2021/12/13 13:05:19;;;;;;;24.67;14.77;;;10.20;90.00;;;;;;5050185;28;20055;-66
2021/12/13 13:07:45;;;;;;;26.98;14.30;;;10.20;90.00;;;;;;5050659;28;20494;-66
2021/12/13 13:13:10;;;;;;;21.60;14.30;;;10.20;89.70;;;;;;5046671;28;20053;-66
2021/12/13 13:15:52;;;;;;;16.55;12.98;;;10.20;90.00;;;;;;5047211;28;20068;-66
2021/12/13 13:18:25;;;;;;;23.92;13.50;;;10.20;89.60;;;;;;5047833;28;20513;-65
2021/12/13 13:20:57;;;;;;;19.27;13.20;;;10.20;89.80;;;;;;5030579;28;20037;-65
2021/12/13 13:23:26;;;;;;;24.08;13.70;;;10.20;89.70;;;;;;5046732;28;20772;-65
2021/12/13 13:25:59;;;;;;;18.83;13.80;;;10.10;89.80;;;;;;5045920;28;20080;-66
2021/12/13 13:28:29;;;;;;;20.60;12.82;;;10.10;89.40;;;;;;5047184;28;20060;-65
2021/12/13 13:31:18;;;;;;;24.38;14.52;;;10.10;89.90;;;;;;5048516;28;20080;-65
2021/12/13 13:34:00;;;;;;;21.23;13.68;;;10.10;89.90;;;;;;5044667;28;20041;-65